createdAt,value
2023-08-25T00:01:50.402Z,0.93
2023-08-25T00:03:53.347Z,0.82
2023-08-25T00:05:56.173Z,1.17
2023-08-25T00:07:59.124Z,1.02
2023-08-25T00:10:02.030Z,0.82
2023-08-25T00:12:07.481Z,0.75
2023-08-25T00:14:10.393Z,0.85
2023-08-25T00:16:13.584Z,0.85
2023-08-25T00:18:16.640Z,1.08
2023-08-25T00:20:20.242Z,1.77
2023-08-25T00:22:23.246Z,1.50
2023-08-25T00:24:26.290Z,1.08
2023-08-25T00:26:29.453Z,0.93
2023-08-25T00:28:32.331Z,1.48
2023-08-25T00:30:35.053Z,0.90
2023-08-25T00:32:39.794Z,1.02
2023-08-25T00:34:42.589Z,0.82
2023-08-25T00:36:46.125Z,0.80
2023-08-25T00:38:48.836Z,0.88
2023-08-25T00:40:51.600Z,0.95
2023-08-25T00:42:54.488Z,0.90
2023-08-25T00:44:57.218Z,0.90
2023-08-25T00:47:00.954Z,1.20
2023-08-25T00:49:04.469Z,1.00
2023-08-25T00:51:10.305Z,0.93
2023-08-25T00:53:13.779Z,0.70
2023-08-25T00:55:16.618Z,0.93
2023-08-25T00:57:20.020Z,0.88
2023-08-25T00:59:22.953Z,0.88
2023-08-25T01:01:25.743Z,0.90
2023-08-25T01:03:28.816Z,1.20
2023-08-25T01:05:32.336Z,1.30
2023-08-25T01:07:35.084Z,0.98
2023-08-25T01:09:37.908Z,0.98
2023-08-25T01:12:00.730Z,1.08
2023-08-25T01:14:18.333Z,0.82
2023-08-25T01:16:30.544Z,0.80
2023-08-25T01:18:36.041Z,1.02
2023-08-25T01:20:40.270Z,1.23
2023-08-25T01:23:21.116Z,0.98
2023-08-25T01:25:33.073Z,1.20
2023-08-25T01:27:36.430Z,1.67
2023-08-25T01:29:45.062Z,1.08
2023-08-25T01:31:48.159Z,1.30
2023-08-25T01:33:51.376Z,1.05
2023-08-25T01:36:15.997Z,1.20
2023-08-25T01:38:31.400Z,1.38
2023-08-25T01:40:53.204Z,0.68
2023-08-25T01:42:57.158Z,1.15
2023-08-25T01:45:03.638Z,0.85
2023-08-25T01:47:10.289Z,1.20
2023-08-25T01:49:15.440Z,1.25
2023-08-25T01:51:19.077Z,0.80
2023-08-25T01:53:22.690Z,1.10
2023-08-25T01:55:25.616Z,0.85
2023-08-25T01:57:29.204Z,1.30
2023-08-25T01:59:31.926Z,1.20
2023-08-25T02:01:34.744Z,1.25
2023-08-25T02:03:37.838Z,1.60
2023-08-25T02:05:42.007Z,1.23
2023-08-25T02:07:44.950Z,1.10
2023-08-25T02:09:47.687Z,1.67
2023-08-25T02:11:50.479Z,1.40
2023-08-25T02:13:53.255Z,1.20
2023-08-25T02:15:56.292Z,1.10
2023-08-25T02:17:59.270Z,1.02
2023-08-25T02:20:02.270Z,1.17
2023-08-25T02:22:08.540Z,1.00
2023-08-25T02:24:11.393Z,2.13
2023-08-25T02:26:14.202Z,1.38
2023-08-25T02:28:16.914Z,1.20
2023-08-25T02:30:19.653Z,1.77
2023-08-25T02:32:22.443Z,1.42
2023-08-25T02:34:25.163Z,1.50
2023-08-25T02:36:27.913Z,1.30
2023-08-25T02:38:30.849Z,1.25
2023-08-25T02:40:34.435Z,1.33
2023-08-25T02:42:37.182Z,0.90
2023-08-25T02:44:40.008Z,0.88
2023-08-25T02:46:43.978Z,1.40
2023-08-25T02:48:46.765Z,1.17
2023-08-25T02:50:49.468Z,1.10
2023-08-25T02:52:52.367Z,1.60
2023-08-25T02:54:55.207Z,1.23
2023-08-25T02:56:58.073Z,0.93
2023-08-25T02:59:00.865Z,1.42
2023-08-25T03:01:14.121Z,1.60
2023-08-25T03:03:17.041Z,1.17
2023-08-25T03:05:20.108Z,1.38
2023-08-25T03:07:22.747Z,0.93
2023-08-25T03:09:25.576Z,1.20
2023-08-25T03:11:28.268Z,0.73
2023-08-25T03:13:34.351Z,1.02
2023-08-25T03:15:37.670Z,1.55
2023-08-25T03:17:42.615Z,1.45
2023-08-25T03:19:45.580Z,1.00
2023-08-25T03:21:48.472Z,1.58
2023-08-25T03:23:51.172Z,1.35
2023-08-25T03:25:53.935Z,1.13
2023-08-25T03:27:56.600Z,1.20
2023-08-25T03:29:59.418Z,1.38
2023-08-25T03:32:02.445Z,1.55
2023-08-25T03:34:05.221Z,1.20
2023-08-25T03:36:07.949Z,0.93
2023-08-25T03:38:10.770Z,1.27
2023-08-25T03:40:13.670Z,1.27
2023-08-25T03:42:16.549Z,1.08
2023-08-25T03:44:19.216Z,1.30
2023-08-25T03:46:21.881Z,0.98
2023-08-25T03:48:26.264Z,1.23
2023-08-25T03:50:29.545Z,1.00
2023-08-25T03:52:32.264Z,1.45
2023-08-25T03:54:36.534Z,1.27
2023-08-25T03:56:39.518Z,1.25
2023-08-25T03:58:42.567Z,1.02
2023-08-25T04:00:51.970Z,1.48
2023-08-25T04:02:54.799Z,1.10
2023-08-25T04:04:57.610Z,1.58
2023-08-25T04:07:00.361Z,1.00
2023-08-25T04:09:03.115Z,1.40
2023-08-25T04:11:05.852Z,0.80
2023-08-25T04:13:09.396Z,1.10
2023-08-25T04:15:12.486Z,1.00
2023-08-25T04:17:15.496Z,1.23
2023-08-25T04:19:18.485Z,1.13
2023-08-25T04:21:21.484Z,1.38
2023-08-25T04:23:27.468Z,1.17
2023-08-25T04:25:31.271Z,0.73
2023-08-25T04:27:34.107Z,0.98
2023-08-25T04:29:36.873Z,1.05
2023-08-25T04:31:39.589Z,0.90
2023-08-25T04:33:43.126Z,1.15
2023-08-25T04:35:46.107Z,0.73
2023-08-25T04:37:49.148Z,1.15
2023-08-25T04:39:53.692Z,1.00
2023-08-25T04:41:56.372Z,1.20
2023-08-25T04:43:59.177Z,1.02
2023-08-25T04:46:01.967Z,1.10
2023-08-25T04:48:05.314Z,0.80
2023-08-25T04:50:09.572Z,0.93
2023-08-25T04:52:12.285Z,1.10
2023-08-25T04:54:15.407Z,0.82
2023-08-25T04:56:18.996Z,1.00
2023-08-25T04:58:23.075Z,0.98
2023-08-25T05:00:26.991Z,1.10
2023-08-25T05:02:29.701Z,1.00
2023-08-25T05:04:32.472Z,1.00
2023-08-25T05:06:35.274Z,0.73
2023-08-25T05:08:38.041Z,0.80
2023-08-25T05:10:41.118Z,0.70
2023-08-25T05:12:43.908Z,1.05
2023-08-25T05:14:46.577Z,1.40
2023-08-25T05:16:49.726Z,1.20
2023-08-25T05:18:52.433Z,0.85
2023-08-25T05:21:01.785Z,0.70
2023-08-25T05:23:04.887Z,1.10
2023-08-25T05:25:08.043Z,0.70
2023-08-25T05:27:10.780Z,0.77
2023-08-25T05:29:13.484Z,0.68
2023-08-25T05:31:16.113Z,0.93
2023-08-25T05:33:19.009Z,0.93
2023-08-25T05:35:21.758Z,0.60
2023-08-25T05:37:24.557Z,0.80
2023-08-25T05:39:27.424Z,1.27
2023-08-25T05:41:30.392Z,0.70
2023-08-25T05:43:33.120Z,0.85
2023-08-25T05:45:36.162Z,0.98
2023-08-25T05:47:39.090Z,0.70
2023-08-25T05:49:41.893Z,0.73
2023-08-25T05:51:46.214Z,0.70
2023-08-25T05:53:49.268Z,0.95
2023-08-25T05:55:52.192Z,0.80
2023-08-25T05:57:55.342Z,0.80
2023-08-25T05:59:59.620Z,0.80
2023-08-25T06:02:02.769Z,1.17
2023-08-25T06:04:05.977Z,0.82
2023-08-25T06:06:08.808Z,0.40
2023-08-25T06:08:12.772Z,0.60
2023-08-25T06:10:15.835Z,0.68
2023-08-25T06:12:18.745Z,0.95
2023-08-25T06:14:21.796Z,0.75
2023-08-25T06:16:24.792Z,0.95
2023-08-25T06:18:28.317Z,0.60
2023-08-25T06:20:32.086Z,1.20
2023-08-25T06:22:34.939Z,0.82
2023-08-25T06:24:38.728Z,0.73
2023-08-25T06:26:44.259Z,0.47
2023-08-25T06:28:47.316Z,0.52
2023-08-25T06:30:55.866Z,1.05
2023-08-25T06:33:05.118Z,0.50
2023-08-25T06:35:09.435Z,0.80
2023-08-25T06:37:12.794Z,0.50
2023-08-25T06:39:16.344Z,0.80
2023-08-25T06:41:19.820Z,0.40
2023-08-25T06:43:22.583Z,0.50
2023-08-25T06:45:25.247Z,0.90
2023-08-25T06:47:28.717Z,0.82
2023-08-25T06:49:31.523Z,0.40
2023-08-25T06:51:34.432Z,0.70
2023-08-25T06:53:37.365Z,0.43
2023-08-25T06:55:40.164Z,1.13
2023-08-25T06:57:42.956Z,0.50
2023-08-25T06:59:46.107Z,0.60
2023-08-25T07:01:48.920Z,0.60
2023-08-25T07:03:51.786Z,0.93
2023-08-25T07:06:01.209Z,0.82
2023-08-25T07:08:04.522Z,0.50
2023-08-25T07:10:08.488Z,0.70
2023-08-25T07:12:11.356Z,0.52
2023-08-25T07:14:14.435Z,0.43
2023-08-25T07:16:17.208Z,0.55
2023-08-25T07:18:22.847Z,0.40
2023-08-25T07:20:25.621Z,0.65
2023-08-25T07:22:28.454Z,0.30
2023-08-25T07:24:31.153Z,0.60
2023-08-25T07:26:34.006Z,0.40
2023-08-25T07:28:36.757Z,0.50
2023-08-25T07:30:40.466Z,0.50
2023-08-25T07:32:43.443Z,0.30
2023-08-25T07:34:46.901Z,0.60
2023-08-25T07:36:50.245Z,0.65
2023-08-25T07:38:53.088Z,0.32
2023-08-25T07:40:56.500Z,0.47
2023-08-25T07:43:03.239Z,0.22
2023-08-25T07:45:06.997Z,0.40
2023-08-25T07:47:09.696Z,0.20
2023-08-25T07:49:12.793Z,0.30
2023-08-25T07:51:18.979Z,0.30
2023-08-25T07:53:28.381Z,0.40
2023-08-25T07:55:32.382Z,0.43
2023-08-25T07:57:36.838Z,0.47
2023-08-25T07:59:39.606Z,0.30
2023-08-25T08:01:42.471Z,0.45
2023-08-25T08:03:45.237Z,0.50
2023-08-25T08:05:48.109Z,0.40
2023-08-25T08:07:51.156Z,0.63
2023-08-25T08:09:54.336Z,0.35
2023-08-25T08:12:00.826Z,0.35
2023-08-25T08:14:07.130Z,0.40
2023-08-25T08:16:10.361Z,0.50
2023-08-25T08:18:13.380Z,0.55
2023-08-25T08:20:16.228Z,0.50
2023-08-25T08:22:19.344Z,0.50
2023-08-25T08:24:32.016Z,0.70
2023-08-25T08:26:42.717Z,0.32
2023-08-25T08:28:45.580Z,0.75
2023-08-25T08:30:49.702Z,0.63
2023-08-25T08:32:52.813Z,0.45
2023-08-25T08:34:55.668Z,0.47
2023-08-25T08:36:59.134Z,0.35
2023-08-25T08:39:04.674Z,0.60
2023-08-25T08:41:08.286Z,0.50
2023-08-25T08:43:16.125Z,0.50
2023-08-25T08:45:25.758Z,0.50
2023-08-25T08:47:29.032Z,0.20
2023-08-25T08:49:35.588Z,0.20
2023-08-25T08:51:40.684Z,0.60
2023-08-25T08:53:44.279Z,0.30
2023-08-25T08:55:49.387Z,0.32
2023-08-25T08:57:52.737Z,0.50
2023-08-25T09:00:01.291Z,0.50
2023-08-25T09:02:06.020Z,0.38
2023-08-25T09:04:10.462Z,0.20
2023-08-25T09:06:13.784Z,0.25
2023-08-25T09:08:18.240Z,0.40
2023-08-25T09:10:26.537Z,0.40
2023-08-25T09:12:32.905Z,0.50
2023-08-25T09:14:44.036Z,0.40
2023-08-25T09:16:47.907Z,0.20
2023-08-25T09:18:54.396Z,0.17
2023-08-25T09:20:58.703Z,0.43
2023-08-25T09:23:05.355Z,0.20
2023-08-25T09:25:10.001Z,0.73
2023-08-25T09:27:26.968Z,0.25
2023-08-25T09:29:58.009Z,0.20
2023-08-25T09:32:04.756Z,0.40
2023-08-25T09:34:09.671Z,0.30
2023-08-25T09:36:15.431Z,0.55
2023-08-25T09:38:24.015Z,0.40
2023-08-25T09:40:31.930Z,0.38
2023-08-25T09:42:41.756Z,0.30
2023-08-25T09:44:47.111Z,0.43
2023-08-25T09:46:54.184Z,0.20
2023-08-25T09:49:04.825Z,0.63
2023-08-25T09:51:08.080Z,0.45
2023-08-25T09:53:14.403Z,0.70
2023-08-25T09:55:19.357Z,0.70
2023-08-25T09:57:25.337Z,0.30
2023-08-25T09:59:28.659Z,0.55
2023-08-25T10:01:34.171Z,0.30
2023-08-25T10:03:37.616Z,0.47
2023-08-25T10:05:42.730Z,0.35
2023-08-25T10:07:46.963Z,0.32
2023-08-25T10:09:50.347Z,0.30
2023-08-25T10:11:54.799Z,0.60
2023-08-25T10:13:59.113Z,0.40
2023-08-25T10:16:05.675Z,0.50
2023-08-25T10:18:10.235Z,0.55
2023-08-25T10:20:16.676Z,0.40
2023-08-25T10:22:21.923Z,0.30
2023-08-25T10:24:27.432Z,0.20
2023-08-25T10:26:32.200Z,0.20
2023-08-25T10:28:36.310Z,0.30
2023-08-25T10:30:42.504Z,0.40
2023-08-25T10:32:57.709Z,0.20
2023-08-25T10:35:04.470Z,0.50
2023-08-25T10:37:27.861Z,0.40
2023-08-25T10:39:52.393Z,0.50
2023-08-25T10:42:00.271Z,0.20
2023-08-25T10:44:03.413Z,0.40
2023-08-25T10:46:12.877Z,0.55
2023-08-25T10:48:30.593Z,0.15
2023-08-25T10:50:44.397Z,0.47
2023-08-25T10:52:54.316Z,0.30
2023-08-25T10:54:57.584Z,0.38
2023-08-25T10:57:19.435Z,0.30
2023-08-25T10:59:23.685Z,0.30
2023-08-25T11:01:56.009Z,0.20
2023-08-25T11:04:23.958Z,0.40
2023-08-25T11:06:43.808Z,0.25
2023-08-25T11:08:57.569Z,0.35
2023-08-25T11:11:19.019Z,0.22
2023-08-25T11:13:22.268Z,0.17
2023-08-25T11:15:25.299Z,0.30
2023-08-25T11:17:28.851Z,0.40
2023-08-25T11:19:33.909Z,0.20
2023-08-25T11:21:39.524Z,0.40
2023-08-25T11:23:45.087Z,0.10
2023-08-25T11:25:48.863Z,0.10
2023-08-25T11:27:52.567Z,0.40
2023-08-25T11:30:11.421Z,0.35
2023-08-25T11:32:17.663Z,0.30
2023-08-25T11:34:23.753Z,0.20
2023-08-25T11:36:27.303Z,0.35
2023-08-25T11:38:33.429Z,0.55
2023-08-25T11:40:40.615Z,0.68
2023-08-25T11:42:43.674Z,0.28
2023-08-25T11:44:46.740Z,0.32
2023-08-25T11:46:51.771Z,0.20
2023-08-25T11:48:59.643Z,0.75
2023-08-25T11:51:04.368Z,0.73
2023-08-25T11:53:08.636Z,0.40
2023-08-25T11:55:17.831Z,0.35
2023-08-25T11:57:20.976Z,0.60
2023-08-25T11:59:30.524Z,0.50
2023-08-25T12:01:37.295Z,0.30
2023-08-25T12:03:44.124Z,0.30
2023-08-25T12:05:48.580Z,0.20
2023-08-25T12:07:54.786Z,0.30
2023-08-25T12:10:02.291Z,0.30
2023-08-25T12:12:10.230Z,0.32
2023-08-25T12:14:31.239Z,0.17
2023-08-25T12:16:34.453Z,0.25
2023-08-25T12:18:39.597Z,0.20
2023-08-25T12:20:45.979Z,0.60
2023-08-25T12:22:59.215Z,0.15
2023-08-25T12:25:02.398Z,0.20
2023-08-25T12:27:07.409Z,0.40
2023-08-25T12:29:13.516Z,0.40
2023-08-25T12:31:16.383Z,0.30
2023-08-25T12:33:19.170Z,0.30
2023-08-25T12:35:23.591Z,0.40
2023-08-25T12:37:28.404Z,0.40
2023-08-25T12:39:31.330Z,0.40
2023-08-25T12:41:34.222Z,0.30
2023-08-25T12:43:37.300Z,0.32
2023-08-25T12:45:40.988Z,0.30
2023-08-25T12:47:44.546Z,0.50
2023-08-25T12:49:47.987Z,0.20
2023-08-25T12:51:52.446Z,0.20
2023-08-25T12:53:58.702Z,0.20
2023-08-25T12:56:01.412Z,0.45
2023-08-25T12:58:04.647Z,0.40
2023-08-25T13:00:09.403Z,0.70
2023-08-25T13:02:12.371Z,0.20
2023-08-25T13:04:15.154Z,0.38
2023-08-25T13:06:17.968Z,0.25
2023-08-25T13:08:21.456Z,0.30
2023-08-25T13:10:24.603Z,0.20
2023-08-25T13:12:27.292Z,0.30
2023-08-25T13:14:30.273Z,0.40
2023-08-25T13:16:33.129Z,0.40
2023-08-25T13:18:36.273Z,0.22
2023-08-25T13:20:39.078Z,0.63
2023-08-25T13:22:42.075Z,1.13
2023-08-25T13:24:44.817Z,0.30
2023-08-25T13:26:47.685Z,0.35
2023-08-25T13:28:51.402Z,0.40
2023-08-25T13:30:54.232Z,0.35
2023-08-25T13:32:57.304Z,0.50
2023-08-25T13:35:00.215Z,0.47
2023-08-25T13:37:04.973Z,0.30
2023-08-25T13:39:10.666Z,0.57
2023-08-25T13:41:13.282Z,0.22
2023-08-25T13:43:16.093Z,0.35
2023-08-25T13:45:19.049Z,0.20
2023-08-25T13:47:21.793Z,0.52
2023-08-25T13:49:24.786Z,0.40
2023-08-25T13:51:27.665Z,0.30
2023-08-25T13:53:31.134Z,0.43
2023-08-25T13:55:34.339Z,0.30
2023-08-25T13:57:49.744Z,0.40
2023-08-25T13:59:52.811Z,0.28
2023-08-25T14:01:55.690Z,0.30
2023-08-25T14:03:58.827Z,0.20
2023-08-25T14:06:05.502Z,0.50
2023-08-25T14:08:11.070Z,0.10
2023-08-25T14:10:13.872Z,0.30
2023-08-25T14:12:17.822Z,0.30
2023-08-25T14:14:20.596Z,0.50
2023-08-25T14:16:23.496Z,0.30
2023-08-25T14:18:28.129Z,0.30
2023-08-25T14:20:32.419Z,0.30
2023-08-25T14:22:35.234Z,0.20
2023-08-25T14:24:37.974Z,0.30
2023-08-25T14:26:41.079Z,0.40
2023-08-25T14:28:43.971Z,0.20
2023-08-25T14:30:46.732Z,0.47
2023-08-25T14:32:49.667Z,0.35
2023-08-25T14:34:52.436Z,0.40
2023-08-25T14:36:55.130Z,0.47
2023-08-25T14:38:58.459Z,0.57
2023-08-25T14:41:01.414Z,0.55
2023-08-25T14:43:04.356Z,0.57
2023-08-25T14:45:07.956Z,0.30
2023-08-25T14:47:10.729Z,0.45
2023-08-25T14:49:14.052Z,0.55
2023-08-25T14:51:17.123Z,0.50
2023-08-25T14:53:19.926Z,0.65
2023-08-25T14:55:22.669Z,0.43
2023-08-25T14:57:25.426Z,0.47
2023-08-25T14:59:28.194Z,0.40
2023-08-25T15:01:31.323Z,0.60
2023-08-25T15:03:34.137Z,0.55
2023-08-25T15:05:36.964Z,0.50
2023-08-25T15:07:39.798Z,0.65
2023-08-25T15:09:42.513Z,0.65
2023-08-25T15:11:45.301Z,0.60
2023-08-25T15:13:48.337Z,0.80
2023-08-25T15:15:51.160Z,0.60
2023-08-25T15:17:54.188Z,0.88
2023-08-25T15:19:57.411Z,0.55
2023-08-25T15:22:00.202Z,0.40
2023-08-25T15:24:03.138Z,0.65
2023-08-25T15:26:06.417Z,1.25
2023-08-25T15:28:09.166Z,0.40
2023-08-25T15:30:12.822Z,1.38
2023-08-25T15:32:15.574Z,0.50
2023-08-25T15:34:18.499Z,0.80
2023-08-25T15:36:22.573Z,0.90
2023-08-25T15:38:25.458Z,1.38
2023-08-25T15:40:33.739Z,0.60
2023-08-25T15:42:36.520Z,0.65
2023-08-25T15:44:41.387Z,0.68
2023-08-25T15:46:44.639Z,1.08
2023-08-25T15:48:47.333Z,0.50
2023-08-25T15:50:50.160Z,0.40
2023-08-25T15:52:55.164Z,0.63
2023-08-25T15:54:58.189Z,0.40
2023-08-25T15:57:02.287Z,3.00
2023-08-25T15:59:05.037Z,1.05
2023-08-25T16:01:11.949Z,0.90
2023-08-25T16:03:15.015Z,2.13
2023-08-25T16:05:18.164Z,2.40
2023-08-25T16:07:21.080Z,0.90
2023-08-25T16:09:23.845Z,0.93
2023-08-25T16:11:26.830Z,2.95
2023-08-25T16:13:30.654Z,0.80
2023-08-25T16:15:38.578Z,0.60
2023-08-25T16:17:42.649Z,1.50
2023-08-25T16:19:45.753Z,3.13
2023-08-25T16:21:48.432Z,1.42
2023-08-25T16:23:51.206Z,1.17
2023-08-25T16:25:54.091Z,0.85
2023-08-25T16:27:56.819Z,1.02
2023-08-25T16:29:59.547Z,1.10
2023-08-25T16:32:04.598Z,1.20
2023-08-25T16:34:09.299Z,0.75
2023-08-25T16:36:14.184Z,0.73
2023-08-25T16:38:17.214Z,0.80
2023-08-25T16:40:20.896Z,0.70
2023-08-25T16:42:23.629Z,0.82
2023-08-25T16:44:26.482Z,0.80
2023-08-25T16:46:29.286Z,1.10
2023-08-25T16:48:32.410Z,1.90
2023-08-25T16:50:36.307Z,1.02
2023-08-25T16:52:39.072Z,1.05
2023-08-25T16:54:41.837Z,1.30
2023-08-25T16:56:44.977Z,1.42
2023-08-25T16:58:49.067Z,1.20
2023-08-25T17:00:52.287Z,1.30
2023-08-25T17:02:57.318Z,1.23
2023-08-25T17:05:00.483Z,1.20
2023-08-25T17:07:03.333Z,1.25
2023-08-25T17:09:06.220Z,1.38
2023-08-25T17:11:09.114Z,1.27
2023-08-25T17:13:11.991Z,1.38
2023-08-25T17:15:16.727Z,1.50
2023-08-25T17:17:19.671Z,1.17
2023-08-25T17:19:22.430Z,1.40
2023-08-25T17:21:25.189Z,1.55
2023-08-25T17:23:28.281Z,1.42
2023-08-25T17:25:31.761Z,1.13
2023-08-25T17:27:34.954Z,1.85
2023-08-25T17:29:37.741Z,1.67
2023-08-25T17:31:40.451Z,3.40
2023-08-25T17:33:43.511Z,4.32
2023-08-25T17:35:46.738Z,3.45
2023-08-25T17:37:49.504Z,5.72
2023-08-25T17:39:52.482Z,4.22
2023-08-25T17:41:55.537Z,4.60
2023-08-25T17:43:58.378Z,3.20
2023-08-25T17:46:02.081Z,2.28
2023-08-25T17:48:06.299Z,1.80
2023-08-25T17:50:09.263Z,1.70
2023-08-25T17:52:12.131Z,2.08
2023-08-25T17:54:15.130Z,1.27
2023-08-25T17:56:17.974Z,1.92
2023-08-25T17:58:20.634Z,1.95
2023-08-25T18:00:23.549Z,1.80
2023-08-25T18:02:26.533Z,1.60
2023-08-25T18:04:29.314Z,1.45
2023-08-25T18:06:32.112Z,1.90
2023-08-25T18:08:37.227Z,1.40
2023-08-25T18:10:40.561Z,1.08
2023-08-25T18:12:43.302Z,1.50
2023-08-25T18:14:46.024Z,1.63
2023-08-25T18:16:49.274Z,1.27
2023-08-25T18:18:52.142Z,1.40
2023-08-25T18:21:02.841Z,1.85
2023-08-25T18:25:09.293Z,2.55
2023-08-25T18:27:12.045Z,1.80
2023-08-25T18:29:14.894Z,2.25
2023-08-25T18:31:17.684Z,1.88
2023-08-25T18:33:20.422Z,2.17
2023-08-25T18:35:23.912Z,1.88
2023-08-25T18:37:26.606Z,2.00
2023-08-25T18:39:29.566Z,2.15
2023-08-25T18:41:32.489Z,1.38
2023-08-25T18:43:36.156Z,1.88
2023-08-25T18:45:38.842Z,1.63
2023-08-25T18:47:41.674Z,2.28
2023-08-25T18:49:44.401Z,1.77
2023-08-25T18:51:47.132Z,1.60
2023-08-25T18:53:49.965Z,1.88
2023-08-25T18:55:52.836Z,2.15
2023-08-25T18:57:55.628Z,2.42
2023-08-25T18:59:58.463Z,2.63
2023-08-25T19:02:01.201Z,2.22
2023-08-25T19:04:04.112Z,1.58
2023-08-25T19:06:07.409Z,2.30
2023-08-25T19:08:10.259Z,2.53
2023-08-25T19:10:13.122Z,2.42
2023-08-25T19:12:15.854Z,2.08
2023-08-25T19:14:19.175Z,2.25
2023-08-25T19:16:21.975Z,1.92
2023-08-25T19:18:25.038Z,2.88
2023-08-25T19:20:27.958Z,2.42
2023-08-25T19:22:30.734Z,2.03
2023-08-25T19:24:34.316Z,2.50
2023-08-25T19:26:37.299Z,2.67
2023-08-25T19:28:42.818Z,1.98
2023-08-25T19:30:46.516Z,2.85
2023-08-25T19:32:49.295Z,2.35
2023-08-25T19:34:52.094Z,2.03
2023-08-25T19:36:55.332Z,2.45
2023-08-25T19:38:58.061Z,1.60
2023-08-25T19:41:08.564Z,2.22
2023-08-25T19:43:11.522Z,1.92
2023-08-25T19:45:15.740Z,2.60
2023-08-25T19:47:18.882Z,1.98
2023-08-25T19:49:21.634Z,2.75
2023-08-25T19:51:24.440Z,2.40
2023-08-25T19:53:27.378Z,1.80
2023-08-25T19:55:30.563Z,2.47
2023-08-25T19:57:33.795Z,3.00
2023-08-25T19:59:36.620Z,2.63
2023-08-25T20:01:39.346Z,2.53
2023-08-25T20:03:42.448Z,2.95
2023-08-25T20:06:08.413Z,2.05
2023-08-25T20:08:11.144Z,2.83
2023-08-25T20:10:14.018Z,1.40
2023-08-25T20:12:16.764Z,2.15
2023-08-25T20:14:19.520Z,2.17
2023-08-25T20:16:24.348Z,2.40
2023-08-25T20:18:27.412Z,2.17
2023-08-25T20:20:30.311Z,2.33
2023-08-25T20:22:33.000Z,1.85
2023-08-25T20:24:35.658Z,2.25
2023-08-25T20:26:38.717Z,1.40
2023-08-25T20:28:41.860Z,1.73
2023-08-25T20:30:48.412Z,2.08
2023-08-25T20:32:51.278Z,1.55
2023-08-25T20:34:54.040Z,1.77
2023-08-25T20:36:56.970Z,1.40
2023-08-25T20:38:59.679Z,1.48
2023-08-25T20:41:04.580Z,1.30
2023-08-25T20:43:07.895Z,1.55
2023-08-25T20:45:10.789Z,1.50
2023-08-25T20:47:13.454Z,1.58
2023-08-25T20:49:16.124Z,1.52
2023-08-25T20:51:27.803Z,1.40
2023-08-25T20:53:30.908Z,1.52
2023-08-25T20:55:33.790Z,2.30
2023-08-25T20:57:36.755Z,2.22
2023-08-25T20:59:39.520Z,2.40
2023-08-25T21:01:42.599Z,2.88
2023-08-25T21:03:45.701Z,2.17
2023-08-25T21:05:48.466Z,2.00
2023-08-25T21:07:51.538Z,1.88
2023-08-25T21:09:54.266Z,1.83
2023-08-25T21:11:57.094Z,2.00
2023-08-25T21:13:59.841Z,1.95
2023-08-25T21:16:03.281Z,2.20
2023-08-25T21:18:06.234Z,1.67
2023-08-25T21:20:09.644Z,1.60
2023-08-25T21:22:12.440Z,2.72
2023-08-25T21:24:15.215Z,1.77
2023-08-25T21:26:19.735Z,1.83
2023-08-25T21:28:22.756Z,2.20
2023-08-25T21:30:25.611Z,2.25
2023-08-25T21:32:28.378Z,1.58
2023-08-25T21:34:31.265Z,1.77
2023-08-25T21:36:34.999Z,1.73
2023-08-25T21:38:37.769Z,1.33
2023-08-25T21:40:40.550Z,1.85
2023-08-25T21:42:43.362Z,1.92
2023-08-25T21:44:46.069Z,1.35
2023-08-25T21:46:48.801Z,2.25
2023-08-25T21:48:52.354Z,1.83
2023-08-25T21:50:55.074Z,1.88
2023-08-25T21:52:57.931Z,1.73
2023-08-25T21:55:00.740Z,2.10
2023-08-25T21:57:03.730Z,1.52
2023-08-25T21:59:06.867Z,1.63
2023-08-25T22:01:09.743Z,1.63
2023-08-25T22:03:12.768Z,1.60
2023-08-25T22:05:15.651Z,1.27
2023-08-25T22:07:18.498Z,1.70
2023-08-25T22:09:21.298Z,1.52
2023-08-25T22:11:24.153Z,1.67
2023-08-25T22:13:26.898Z,1.50
2023-08-25T22:15:29.775Z,1.35
2023-08-25T22:17:32.494Z,1.60
2023-08-25T22:19:35.333Z,1.88
2023-08-25T22:21:38.235Z,1.42
2023-08-25T22:23:40.979Z,1.35
2023-08-25T22:25:43.838Z,1.50
2023-08-25T22:27:46.634Z,1.17
2023-08-25T22:29:49.404Z,1.35
2023-08-25T22:31:57.456Z,1.65
2023-08-25T22:36:06.161Z,1.23
2023-08-25T22:38:09.041Z,2.10
2023-08-25T22:40:11.893Z,1.17
2023-08-25T22:42:14.751Z,1.15
2023-08-25T22:44:17.531Z,1.15
2023-08-25T22:46:20.338Z,1.33
2023-08-25T22:48:23.291Z,2.67
2023-08-25T22:50:25.992Z,1.27
2023-08-25T22:52:28.771Z,1.20
2023-08-25T22:54:31.830Z,1.23
2023-08-25T22:56:34.618Z,1.60
2023-08-25T22:58:37.443Z,1.25
2023-08-25T23:00:40.251Z,1.58
2023-08-25T23:02:44.898Z,1.25
2023-08-25T23:04:49.346Z,1.85
2023-08-25T23:06:52.168Z,1.38
2023-08-25T23:08:54.867Z,2.03
2023-08-25T23:10:57.630Z,1.92
2023-08-25T23:13:00.300Z,1.92
2023-08-25T23:15:02.992Z,1.60
2023-08-25T23:17:07.412Z,1.50
2023-08-25T23:19:10.249Z,1.50
2023-08-25T23:21:13.245Z,1.55
2023-08-25T23:23:16.540Z,1.48
2023-08-25T23:25:19.258Z,2.08
2023-08-25T23:27:22.331Z,1.52
2023-08-25T23:29:25.099Z,1.83
2023-08-25T23:31:27.805Z,1.98
2023-08-25T23:33:31.156Z,1.48
2023-08-25T23:35:35.837Z,2.17
2023-08-25T23:37:38.516Z,1.70
2023-08-25T23:39:41.328Z,1.40
2023-08-25T23:41:44.031Z,1.30
2023-08-25T23:43:46.852Z,1.13
2023-08-25T23:45:50.345Z,1.77
2023-08-25T23:47:53.190Z,1.85
2023-08-25T23:49:55.992Z,1.70
2023-08-25T23:51:59.677Z,1.13
2023-08-25T23:54:02.415Z,1.73
2023-08-25T23:56:05.494Z,1.52
2023-08-25T23:58:08.246Z,1.63
